sensor_id;sensor_type;location;lat;lon;timestamp;P1;durP1;ratioP1;P2;durP2;ratioP2
33327;SDS011;19692;52.998;9.116;2023-08-01T00:02:19;6.40;;;5.73;;
33327;SDS011;19692;52.998;9.116;2023-08-01T00:04:44;6.40;;;5.90;;
33327;SDS011;19692;52.998;9.116;2023-08-01T00:07:10;6.13;;;5.63;;
33327;SDS011;19692;52.998;9.116;2023-08-01T00:09:36;8.33;;;5.60;;
33327;SDS011;19692;52.998;9.116;2023-08-01T00:12:02;6.47;;;5.97;;
33327;SDS011;19692;52.998;9.116;2023-08-01T00:14:27;6.20;;;5.67;;
33327;SDS011;19692;52.998;9.116;2023-08-01T00:16:53;6.00;;;5.50;;
33327;SDS011;19692;52.998;9.116;2023-08-01T00:19:19;7.20;;;6.03;;
33327;SDS011;19692;52.998;9.116;2023-08-01T00:21:45;6.80;;;5.93;;
33327;SDS011;19692;52.998;9.116;2023-08-01T00:24:12;6.70;;;6.20;;
33327;SDS011;19692;52.998;9.116;2023-08-01T00:26:37;7.20;;;5.67;;
33327;SDS011;19692;52.998;9.116;2023-08-01T00:29:03;6.87;;;6.07;;
33327;SDS011;19692;52.998;9.116;2023-08-01T00:31:29;6.80;;;6.20;;
33327;SDS011;19692;52.998;9.116;2023-08-01T00:33:55;6.60;;;5.90;;
33327;SDS011;19692;52.998;9.116;2023-08-01T00:36:20;6.57;;;6.07;;
33327;SDS011;19692;52.998;9.116;2023-08-01T00:38:46;8.20;;;5.90;;
33327;SDS011;19692;52.998;9.116;2023-08-01T00:41:13;6.40;;;5.80;;
33327;SDS011;19692;52.998;9.116;2023-08-01T00:43:39;6.90;;;5.70;;
33327;SDS011;19692;52.998;9.116;2023-08-01T00:46:05;6.37;;;5.77;;
33327;SDS011;19692;52.998;9.116;2023-08-01T00:48:32;9.40;;;5.87;;
33327;SDS011;19692;52.998;9.116;2023-08-01T00:50:58;6.27;;;5.67;;
33327;SDS011;19692;52.998;9.116;2023-08-01T00:53:27;7.13;;;6.23;;
33327;SDS011;19692;52.998;9.116;2023-08-01T00:55:54;6.73;;;6.13;;
33327;SDS011;19692;52.998;9.116;2023-08-01T00:58:21;9.83;;;6.67;;
33327;SDS011;19692;52.998;9.116;2023-08-01T01:00:47;7.63;;;6.63;;
33327;SDS011;19692;52.998;9.116;2023-08-01T01:03:13;7.50;;;6.30;;
33327;SDS011;19692;52.998;9.116;2023-08-01T01:05:41;9.83;;;6.40;;
33327;SDS011;19692;52.998;9.116;2023-08-01T01:08:19;9.20;;;6.50;;
33327;SDS011;19692;52.998;9.116;2023-08-01T01:10:45;7.47;;;6.53;;
33327;SDS011;19692;52.998;9.116;2023-08-01T01:13:11;8.50;;;7.07;;
33327;SDS011;19692;52.998;9.116;2023-08-01T01:15:37;7.17;;;6.47;;
33327;SDS011;19692;52.998;9.116;2023-08-01T01:18:03;8.37;;;6.43;;
33327;SDS011;19692;52.998;9.116;2023-08-01T01:20:35;7.27;;;6.03;;
33327;SDS011;19692;52.998;9.116;2023-08-01T01:23:03;8.47;;;6.73;;
33327;SDS011;19692;52.998;9.116;2023-08-01T01:25:30;6.97;;;6.27;;
33327;SDS011;19692;52.998;9.116;2023-08-01T01:27:58;6.80;;;6.10;;
33327;SDS011;19692;52.998;9.116;2023-08-01T01:30:24;8.00;;;5.70;;
33327;SDS011;19692;52.998;9.116;2023-08-01T01:32:52;6.47;;;5.90;;
33327;SDS011;19692;52.998;9.116;2023-08-01T01:35:18;7.27;;;6.50;;
33327;SDS011;19692;52.998;9.116;2023-08-01T01:37:44;7.23;;;6.30;;
33327;SDS011;19692;52.998;9.116;2023-08-01T01:40:10;6.60;;;5.90;;
33327;SDS011;19692;52.998;9.116;2023-08-01T01:42:36;9.00;;;6.60;;
33327;SDS011;19692;52.998;9.116;2023-08-01T01:45:02;6.83;;;6.13;;
33327;SDS011;19692;52.998;9.116;2023-08-01T01:47:28;6.77;;;6.13;;
33327;SDS011;19692;52.998;9.116;2023-08-01T01:49:54;6.80;;;6.07;;
33327;SDS011;19692;52.998;9.116;2023-08-01T01:52:20;6.87;;;6.00;;
33327;SDS011;19692;52.998;9.116;2023-08-01T01:54:46;8.67;;;6.23;;
33327;SDS011;19692;52.998;9.116;2023-08-01T01:57:11;6.60;;;6.00;;
33327;SDS011;19692;52.998;9.116;2023-08-01T01:59:37;6.80;;;6.20;;
33327;SDS011;19692;52.998;9.116;2023-08-01T02:02:03;7.43;;;5.53;;
33327;SDS011;19692;52.998;9.116;2023-08-01T02:04:29;6.63;;;5.47;;
33327;SDS011;19692;52.998;9.116;2023-08-01T02:06:55;7.40;;;6.70;;
33327;SDS011;19692;52.998;9.116;2023-08-01T02:09:21;6.90;;;5.50;;
33327;SDS011;19692;52.998;9.116;2023-08-01T02:11:47;6.30;;;5.70;;
33327;SDS011;19692;52.998;9.116;2023-08-01T02:14:13;6.60;;;5.77;;
33327;SDS011;19692;52.998;9.116;2023-08-01T02:16:39;6.93;;;5.67;;
33327;SDS011;19692;52.998;9.116;2023-08-01T02:19:04;10.80;;;5.53;;
33327;SDS011;19692;52.998;9.116;2023-08-01T02:21:30;6.73;;;6.03;;
33327;SDS011;19692;52.998;9.116;2023-08-01T02:23:56;7.07;;;6.37;;
33327;SDS011;19692;52.998;9.116;2023-08-01T02:26:22;9.70;;;6.40;;
33327;SDS011;19692;52.998;9.116;2023-08-01T02:28:49;8.03;;;6.57;;
33327;SDS011;19692;52.998;9.116;2023-08-01T02:31:15;9.73;;;7.10;;
33327;SDS011;19692;52.998;9.116;2023-08-01T02:33:42;9.47;;;6.47;;
33327;SDS011;19692;52.998;9.116;2023-08-01T02:36:07;7.80;;;7.00;;
33327;SDS011;19692;52.998;9.116;2023-08-01T02:38:33;8.13;;;6.87;;
33327;SDS011;19692;52.998;9.116;2023-08-01T02:40:59;9.50;;;6.17;;
33327;SDS011;19692;52.998;9.116;2023-08-01T02:43:25;7.93;;;7.13;;
33327;SDS011;19692;52.998;9.116;2023-08-01T02:45:50;7.80;;;6.73;;
33327;SDS011;19692;52.998;9.116;2023-08-01T02:48:16;10.07;;;6.97;;
33327;SDS011;19692;52.998;9.116;2023-08-01T02:50:42;9.40;;;7.20;;
33327;SDS011;19692;52.998;9.116;2023-08-01T02:53:08;9.00;;;7.80;;
33327;SDS011;19692;52.998;9.116;2023-08-01T02:55:33;8.03;;;7.23;;
33327;SDS011;19692;52.998;9.116;2023-08-01T02:57:59;8.93;;;7.07;;
33327;SDS011;19692;52.998;9.116;2023-08-01T03:02:58;9.50;;;8.17;;
33327;SDS011;19692;52.998;9.116;2023-08-01T03:05:24;7.57;;;6.57;;
33327;SDS011;19692;52.998;9.116;2023-08-01T03:07:50;9.00;;;7.00;;
33327;SDS011;19692;52.998;9.116;2023-08-01T03:10:16;12.03;;;7.17;;
33327;SDS011;19692;52.998;9.116;2023-08-01T03:12:41;8.07;;;6.50;;
33327;SDS011;19692;52.998;9.116;2023-08-01T03:15:07;10.00;;;6.60;;
33327;SDS011;19692;52.998;9.116;2023-08-01T03:17:34;7.23;;;6.17;;
33327;SDS011;19692;52.998;9.116;2023-08-01T03:20:00;10.40;;;6.40;;
33327;SDS011;19692;52.998;9.116;2023-08-01T03:22:25;8.27;;;7.00;;
33327;SDS011;19692;52.998;9.116;2023-08-01T03:24:51;10.80;;;6.70;;
33327;SDS011;19692;52.998;9.116;2023-08-01T03:27:17;9.43;;;7.07;;
33327;SDS011;19692;52.998;9.116;2023-08-01T03:29:43;10.63;;;7.07;;
33327;SDS011;19692;52.998;9.116;2023-08-01T03:32:08;8.60;;;7.30;;
33327;SDS011;19692;52.998;9.116;2023-08-01T03:34:34;10.10;;;7.37;;
33327;SDS011;19692;52.998;9.116;2023-08-01T03:37:00;10.03;;;7.77;;
33327;SDS011;19692;52.998;9.116;2023-08-01T03:39:26;12.43;;;8.20;;
33327;SDS011;19692;52.998;9.116;2023-08-01T03:41:51;12.80;;;8.17;;
33327;SDS011;19692;52.998;9.116;2023-08-01T03:44:17;11.77;;;8.27;;
33327;SDS011;19692;52.998;9.116;2023-08-01T03:46:43;12.97;;;8.90;;
33327;SDS011;19692;52.998;9.116;2023-08-01T03:49:09;10.20;;;8.27;;
33327;SDS011;19692;52.998;9.116;2023-08-01T03:51:35;11.40;;;9.20;;
33327;SDS011;19692;52.998;9.116;2023-08-01T03:54:01;10.23;;;9.03;;
33327;SDS011;19692;52.998;9.116;2023-08-01T03:56:26;10.50;;;8.13;;
33327;SDS011;19692;52.998;9.116;2023-08-01T03:58:52;10.00;;;8.60;;
33327;SDS011;19692;52.998;9.116;2023-08-01T04:01:18;14.23;;;9.37;;
33327;SDS011;19692;52.998;9.116;2023-08-01T04:03:44;13.73;;;9.70;;
33327;SDS011;19692;52.998;9.116;2023-08-01T04:06:10;15.27;;;9.33;;
33327;SDS011;19692;52.998;9.116;2023-08-01T04:08:40;14.90;;;10.00;;
33327;SDS011;19692;52.998;9.116;2023-08-01T04:11:05;15.67;;;10.60;;
33327;SDS011;19692;52.998;9.116;2023-08-01T04:13:31;12.07;;;9.97;;
33327;SDS011;19692;52.998;9.116;2023-08-01T04:15:57;14.40;;;10.10;;
33327;SDS011;19692;52.998;9.116;2023-08-01T04:18:23;14.67;;;10.50;;
33327;SDS011;19692;52.998;9.116;2023-08-01T04:20:48;13.67;;;10.17;;
33327;SDS011;19692;52.998;9.116;2023-08-01T04:23:14;16.10;;;11.33;;
33327;SDS011;19692;52.998;9.116;2023-08-01T04:25:40;14.50;;;12.13;;
33327;SDS011;19692;52.998;9.116;2023-08-01T04:28:07;13.67;;;11.30;;
33327;SDS011;19692;52.998;9.116;2023-08-01T04:30:33;14.13;;;11.67;;
33327;SDS011;19692;52.998;9.116;2023-08-01T04:32:59;14.70;;;11.20;;
33327;SDS011;19692;52.998;9.116;2023-08-01T04:35:24;13.57;;;11.77;;
33327;SDS011;19692;52.998;9.116;2023-08-01T04:37:53;12.47;;;11.17;;
33327;SDS011;19692;52.998;9.116;2023-08-01T04:40:19;15.77;;;12.40;;
33327;SDS011;19692;52.998;9.116;2023-08-01T04:42:45;14.27;;;12.20;;
33327;SDS011;19692;52.998;9.116;2023-08-01T04:45:11;14.80;;;11.70;;
33327;SDS011;19692;52.998;9.116;2023-08-01T04:47:36;14.97;;;11.63;;
33327;SDS011;19692;52.998;9.116;2023-08-01T04:50:02;14.47;;;11.87;;
33327;SDS011;19692;52.998;9.116;2023-08-01T04:52:29;18.17;;;12.23;;
33327;SDS011;19692;52.998;9.116;2023-08-01T04:54:54;17.00;;;12.10;;
33327;SDS011;19692;52.998;9.116;2023-08-01T04:57:20;13.90;;;12.40;;
33327;SDS011;19692;52.998;9.116;2023-08-01T04:59:46;14.10;;;11.27;;
33327;SDS011;19692;52.998;9.116;2023-08-01T05:02:12;14.73;;;11.60;;
33327;SDS011;19692;52.998;9.116;2023-08-01T05:04:38;14.87;;;11.67;;
33327;SDS011;19692;52.998;9.116;2023-08-01T05:07:04;15.13;;;11.67;;
33327;SDS011;19692;52.998;9.116;2023-08-01T05:09:32;12.80;;;11.33;;
33327;SDS011;19692;52.998;9.116;2023-08-01T05:11:58;15.27;;;11.87;;
33327;SDS011;19692;52.998;9.116;2023-08-01T05:14:24;18.37;;;12.63;;
33327;SDS011;19692;52.998;9.116;2023-08-01T05:16:50;14.73;;;12.33;;
33327;SDS011;19692;52.998;9.116;2023-08-01T05:19:16;15.30;;;13.00;;
33327;SDS011;19692;52.998;9.116;2023-08-01T05:21:41;15.70;;;13.17;;
33327;SDS011;19692;52.998;9.116;2023-08-01T05:24:07;18.73;;;13.30;;
33327;SDS011;19692;52.998;9.116;2023-08-01T05:26:33;15.13;;;12.87;;
33327;SDS011;19692;52.998;9.116;2023-08-01T05:28:59;16.00;;;12.53;;
33327;SDS011;19692;52.998;9.116;2023-08-01T05:31:25;14.80;;;13.13;;
33327;SDS011;19692;52.998;9.116;2023-08-01T05:33:50;18.07;;;13.73;;
33327;SDS011;19692;52.998;9.116;2023-08-01T05:36:16;17.00;;;12.90;;
33327;SDS011;19692;52.998;9.116;2023-08-01T05:38:42;15.03;;;10.93;;
33327;SDS011;19692;52.998;9.116;2023-08-01T05:41:07;14.30;;;10.97;;
33327;SDS011;19692;52.998;9.116;2023-08-01T05:43:33;12.23;;;8.70;;
33327;SDS011;19692;52.998;9.116;2023-08-01T05:45:59;11.73;;;8.47;;
33327;SDS011;19692;52.998;9.116;2023-08-01T05:48:25;9.63;;;6.77;;
33327;SDS011;19692;52.998;9.116;2023-08-01T05:50:50;8.00;;;5.97;;
33327;SDS011;19692;52.998;9.116;2023-08-01T05:53:18;7.43;;;5.60;;
33327;SDS011;19692;52.998;9.116;2023-08-01T05:55:44;7.67;;;5.60;;
33327;SDS011;19692;52.998;9.116;2023-08-01T05:58:09;6.50;;;5.80;;
33327;SDS011;19692;52.998;9.116;2023-08-01T06:00:35;7.07;;;5.23;;
33327;SDS011;19692;52.998;9.116;2023-08-01T06:03:01;6.87;;;5.43;;
33327;SDS011;19692;52.998;9.116;2023-08-01T06:05:27;7.70;;;5.13;;
33327;SDS011;19692;52.998;9.116;2023-08-01T06:07:53;8.03;;;6.00;;
33327;SDS011;19692;52.998;9.116;2023-08-01T06:10:18;7.37;;;6.67;;
33327;SDS011;19692;52.998;9.116;2023-08-01T06:12:44;11.23;;;7.70;;
33327;SDS011;19692;52.998;9.116;2023-08-01T06:15:11;10.27;;;8.70;;
33327;SDS011;19692;52.998;9.116;2023-08-01T06:17:37;17.57;;;10.87;;
33327;SDS011;19692;52.998;9.116;2023-08-01T06:20:03;16.13;;;12.53;;
33327;SDS011;19692;52.998;9.116;2023-08-01T06:22:30;13.90;;;11.73;;
33327;SDS011;19692;52.998;9.116;2023-08-01T06:24:56;14.10;;;12.37;;
33327;SDS011;19692;52.998;9.116;2023-08-01T06:27:22;18.23;;;14.17;;
33327;SDS011;19692;52.998;9.116;2023-08-01T06:29:47;17.00;;;12.90;;
33327;SDS011;19692;52.998;9.116;2023-08-01T06:32:13;14.50;;;12.70;;
33327;SDS011;19692;52.998;9.116;2023-08-01T06:34:39;17.90;;;13.40;;
33327;SDS011;19692;52.998;9.116;2023-08-01T06:37:05;15.80;;;12.70;;
33327;SDS011;19692;52.998;9.116;2023-08-01T06:39:31;18.43;;;12.53;;
33327;SDS011;19692;52.998;9.116;2023-08-01T06:41:56;15.60;;;11.70;;
33327;SDS011;19692;52.998;9.116;2023-08-01T06:44:22;13.33;;;11.87;;
33327;SDS011;19692;52.998;9.116;2023-08-01T06:46:48;13.80;;;11.23;;
33327;SDS011;19692;52.998;9.116;2023-08-01T06:49:14;13.00;;;11.20;;
33327;SDS011;19692;52.998;9.116;2023-08-01T06:51:39;16.50;;;12.03;;
33327;SDS011;19692;52.998;9.116;2023-08-01T06:54:07;14.63;;;11.23;;
33327;SDS011;19692;52.998;9.116;2023-08-01T06:56:32;14.60;;;11.87;;
33327;SDS011;19692;52.998;9.116;2023-08-01T06:58:58;15.83;;;12.50;;
33327;SDS011;19692;52.998;9.116;2023-08-01T07:01:24;14.23;;;11.53;;
33327;SDS011;19692;52.998;9.116;2023-08-01T07:03:50;14.67;;;12.53;;
33327;SDS011;19692;52.998;9.116;2023-08-01T07:06:18;14.30;;;11.40;;
33327;SDS011;19692;52.998;9.116;2023-08-01T07:08:44;13.47;;;10.40;;
33327;SDS011;19692;52.998;9.116;2023-08-01T07:11:10;16.20;;;10.90;;
33327;SDS011;19692;52.998;9.116;2023-08-01T07:13:36;12.63;;;10.93;;
33327;SDS011;19692;52.998;9.116;2023-08-01T07:16:01;16.20;;;11.33;;
33327;SDS011;19692;52.998;9.116;2023-08-01T07:18:27;12.83;;;9.60;;
33327;SDS011;19692;52.998;9.116;2023-08-01T07:21:01;13.17;;;10.13;;
33327;SDS011;19692;52.998;9.116;2023-08-01T07:23:29;12.93;;;10.23;;
33327;SDS011;19692;52.998;9.116;2023-08-01T07:25:55;11.53;;;8.73;;
33327;SDS011;19692;52.998;9.116;2023-08-01T07:28:21;12.17;;;9.37;;
33327;SDS011;19692;52.998;9.116;2023-08-01T07:30:47;13.43;;;8.40;;
33327;SDS011;19692;52.998;9.116;2023-08-01T07:33:13;11.20;;;7.50;;
33327;SDS011;19692;52.998;9.116;2023-08-01T07:35:38;14.50;;;7.87;;
33327;SDS011;19692;52.998;9.116;2023-08-01T07:38:04;8.80;;;6.63;;
33327;SDS011;19692;52.998;9.116;2023-08-01T07:40:30;8.93;;;6.40;;
33327;SDS011;19692;52.998;9.116;2023-08-01T07:42:56;10.20;;;7.23;;
33327;SDS011;19692;52.998;9.116;2023-08-01T07:45:24;10.53;;;7.27;;
33327;SDS011;19692;52.998;9.116;2023-08-01T07:47:50;8.90;;;7.00;;
33327;SDS011;19692;52.998;9.116;2023-08-01T07:50:16;8.97;;;5.70;;
33327;SDS011;19692;52.998;9.116;2023-08-01T07:52:41;5.87;;;4.80;;
33327;SDS011;19692;52.998;9.116;2023-08-01T07:55:07;9.30;;;4.23;;
33327;SDS011;19692;52.998;9.116;2023-08-01T07:57:33;4.83;;;3.30;;
33327;SDS011;19692;52.998;9.116;2023-08-01T07:59:59;5.57;;;3.23;;
33327;SDS011;19692;52.998;9.116;2023-08-01T08:02:25;3.60;;;3.30;;
33327;SDS011;19692;52.998;9.116;2023-08-01T08:04:50;3.47;;;2.73;;
33327;SDS011;19692;52.998;9.116;2023-08-01T08:07:16;5.03;;;2.50;;
33327;SDS011;19692;52.998;9.116;2023-08-01T08:09:42;4.77;;;2.80;;
33327;SDS011;19692;52.998;9.116;2023-08-01T08:12:08;5.30;;;2.60;;
33327;SDS011;19692;52.998;9.116;2023-08-01T08:14:34;4.80;;;2.60;;
33327;SDS011;19692;52.998;9.116;2023-08-01T08:16:59;5.10;;;2.50;;
33327;SDS011;19692;52.998;9.116;2023-08-01T08:19:25;4.67;;;2.37;;
33327;SDS011;19692;52.998;9.116;2023-08-01T08:21:51;9.17;;;3.13;;
33327;SDS011;19692;52.998;9.116;2023-08-01T08:24:17;5.87;;;2.90;;
33327;SDS011;19692;52.998;9.116;2023-08-01T08:26:42;6.40;;;3.40;;
33327;SDS011;19692;52.998;9.116;2023-08-01T08:29:10;8.07;;;3.50;;
33327;SDS011;19692;52.998;9.116;2023-08-01T08:31:36;6.93;;;3.00;;
33327;SDS011;19692;52.998;9.116;2023-08-01T08:34:01;5.83;;;2.93;;
33327;SDS011;19692;52.998;9.116;2023-08-01T08:36:27;4.23;;;3.00;;
33327;SDS011;19692;52.998;9.116;2023-08-01T08:38:53;3.83;;;2.70;;
33327;SDS011;19692;52.998;9.116;2023-08-01T08:41:20;3.63;;;2.60;;
33327;SDS011;19692;52.998;9.116;2023-08-01T08:43:49;3.33;;;2.80;;
33327;SDS011;19692;52.998;9.116;2023-08-01T08:46:19;6.93;;;2.83;;
33327;SDS011;19692;52.998;9.116;2023-08-01T08:48:47;5.03;;;3.17;;
33327;SDS011;19692;52.998;9.116;2023-08-01T08:51:12;2.63;;;2.40;;
33327;SDS011;19692;52.998;9.116;2023-08-01T08:53:38;7.13;;;2.77;;
33327;SDS011;19692;52.998;9.116;2023-08-01T08:56:07;3.23;;;2.57;;
33327;SDS011;19692;52.998;9.116;2023-08-01T08:58:34;6.57;;;2.40;;
33327;SDS011;19692;52.998;9.116;2023-08-01T09:01:04;4.83;;;2.83;;
33327;SDS011;19692;52.998;9.116;2023-08-01T09:03:33;6.40;;;2.73;;
33327;SDS011;19692;52.998;9.116;2023-08-01T09:06:03;4.43;;;2.63;;
33327;SDS011;19692;52.998;9.116;2023-08-01T09:08:33;4.80;;;2.90;;
33327;SDS011;19692;52.998;9.116;2023-08-01T09:11:01;4.37;;;2.47;;
33327;SDS011;19692;52.998;9.116;2023-08-01T09:13:29;4.27;;;2.60;;
33327;SDS011;19692;52.998;9.116;2023-08-01T09:15:55;5.37;;;2.73;;
33327;SDS011;19692;52.998;9.116;2023-08-01T09:18:21;3.17;;;2.53;;
33327;SDS011;19692;52.998;9.116;2023-08-01T09:20:48;5.57;;;2.40;;
33327;SDS011;19692;52.998;9.116;2023-08-01T09:23:15;3.87;;;2.50;;
33327;SDS011;19692;52.998;9.116;2023-08-01T09:25:42;4.20;;;2.47;;
33327;SDS011;19692;52.998;9.116;2023-08-01T09:28:15;4.13;;;2.30;;
33327;SDS011;19692;52.998;9.116;2023-08-01T09:30:47;2.73;;;2.17;;
33327;SDS011;19692;52.998;9.116;2023-08-01T09:33:16;6.13;;;2.73;;
33327;SDS011;19692;52.998;9.116;2023-08-01T09:35:42;4.67;;;2.37;;
33327;SDS011;19692;52.998;9.116;2023-08-01T09:38:11;5.47;;;2.57;;
33327;SDS011;19692;52.998;9.116;2023-08-01T09:40:39;4.17;;;2.73;;
33327;SDS011;19692;52.998;9.116;2023-08-01T09:43:05;5.47;;;2.60;;
33327;SDS011;19692;52.998;9.116;2023-08-01T09:45:31;5.00;;;2.23;;
33327;SDS011;19692;52.998;9.116;2023-08-01T09:47:59;3.10;;;2.40;;
33327;SDS011;19692;52.998;9.116;2023-08-01T09:50:25;3.23;;;2.03;;
33327;SDS011;19692;52.998;9.116;2023-08-01T09:52:51;4.90;;;2.30;;
33327;SDS011;19692;52.998;9.116;2023-08-01T09:55:31;3.13;;;2.40;;
33327;SDS011;19692;52.998;9.116;2023-08-01T09:57:58;3.40;;;2.40;;
33327;SDS011;19692;52.998;9.116;2023-08-01T10:00:25;2.70;;;1.97;;
33327;SDS011;19692;52.998;9.116;2023-08-01T10:02:52;3.27;;;2.23;;
33327;SDS011;19692;52.998;9.116;2023-08-01T10:05:22;3.87;;;2.60;;
33327;SDS011;19692;52.998;9.116;2023-08-01T10:07:48;2.40;;;2.20;;
33327;SDS011;19692;52.998;9.116;2023-08-01T10:10:18;4.80;;;2.50;;
33327;SDS011;19692;52.998;9.116;2023-08-01T10:12:46;4.00;;;2.93;;
33327;SDS011;19692;52.998;9.116;2023-08-01T10:15:15;4.07;;;2.80;;
33327;SDS011;19692;52.998;9.116;2023-08-01T10:17:41;4.10;;;2.60;;
33327;SDS011;19692;52.998;9.116;2023-08-01T10:20:07;4.67;;;2.63;;
33327;SDS011;19692;52.998;9.116;2023-08-01T10:22:33;5.87;;;2.70;;
33327;SDS011;19692;52.998;9.116;2023-08-01T10:25:00;4.13;;;3.13;;
33327;SDS011;19692;52.998;9.116;2023-08-01T10:27:26;7.20;;;3.30;;
33327;SDS011;19692;52.998;9.116;2023-08-01T10:32:35;3.10;;;2.80;;
33327;SDS011;19692;52.998;9.116;2023-08-01T10:35:03;4.63;;;2.90;;
33327;SDS011;19692;52.998;9.116;2023-08-01T10:40:08;3.37;;;2.77;;
33327;SDS011;19692;52.998;9.116;2023-08-01T10:42:38;3.60;;;2.77;;
33327;SDS011;19692;52.998;9.116;2023-08-01T10:45:20;2.70;;;2.43;;
33327;SDS011;19692;52.998;9.116;2023-08-01T10:47:50;3.30;;;2.37;;
33327;SDS011;19692;52.998;9.116;2023-08-01T10:50:17;3.70;;;2.10;;
33327;SDS011;19692;52.998;9.116;2023-08-01T10:52:43;5.00;;;3.20;;
33327;SDS011;19692;52.998;9.116;2023-08-01T10:55:11;2.23;;;1.80;;
33327;SDS011;19692;52.998;9.116;2023-08-01T10:57:39;2.20;;;1.80;;
33327;SDS011;19692;52.998;9.116;2023-08-01T11:00:15;3.03;;;2.23;;
33327;SDS011;19692;52.998;9.116;2023-08-01T11:02:48;3.30;;;2.10;;
33327;SDS011;19692;52.998;9.116;2023-08-01T11:05:17;3.23;;;2.10;;
33327;SDS011;19692;52.998;9.116;2023-08-01T11:07:52;2.10;;;1.90;;
33327;SDS011;19692;52.998;9.116;2023-08-01T11:10:24;2.03;;;1.63;;
33327;SDS011;19692;52.998;9.116;2023-08-01T11:12:51;2.77;;;1.97;;
33327;SDS011;19692;52.998;9.116;2023-08-01T11:15:18;2.23;;;1.70;;
33327;SDS011;19692;52.998;9.116;2023-08-01T11:17:49;2.40;;;1.60;;
33327;SDS011;19692;52.998;9.116;2023-08-01T11:20:20;3.10;;;1.70;;
33327;SDS011;19692;52.998;9.116;2023-08-01T11:25:39;1.80;;;1.40;;
33327;SDS011;19692;52.998;9.116;2023-08-01T11:28:14;1.93;;;1.63;;
33327;SDS011;19692;52.998;9.116;2023-08-01T11:30:42;4.30;;;1.73;;
33327;SDS011;19692;52.998;9.116;2023-08-01T11:35:46;1.57;;;1.43;;
33327;SDS011;19692;52.998;9.116;2023-08-01T11:38:22;4.10;;;1.67;;
33327;SDS011;19692;52.998;9.116;2023-08-01T11:40:50;3.40;;;1.50;;
33327;SDS011;19692;52.998;9.116;2023-08-01T11:43:17;1.83;;;1.50;;
33327;SDS011;19692;52.998;9.116;2023-08-01T11:45:49;2.10;;;1.60;;
33327;SDS011;19692;52.998;9.116;2023-08-01T11:48:24;2.50;;;1.60;;
33327;SDS011;19692;52.998;9.116;2023-08-01T11:50:59;2.27;;;1.60;;
33327;SDS011;19692;52.998;9.116;2023-08-01T11:53:26;1.60;;;1.50;;
33327;SDS011;19692;52.998;9.116;2023-08-01T11:55:53;1.90;;;1.60;;
33327;SDS011;19692;52.998;9.116;2023-08-01T11:58:28;1.57;;;1.40;;
33327;SDS011;19692;52.998;9.116;2023-08-01T12:01:05;1.60;;;1.50;;
33327;SDS011;19692;52.998;9.116;2023-08-01T12:03:44;2.07;;;1.50;;
33327;SDS011;19692;52.998;9.116;2023-08-01T12:06:14;1.83;;;1.50;;
33327;SDS011;19692;52.998;9.116;2023-08-01T12:08:42;3.30;;;1.60;;
33327;SDS011;19692;52.998;9.116;2023-08-01T12:11:28;2.13;;;1.73;;
33327;SDS011;19692;52.998;9.116;2023-08-01T12:14:05;1.80;;;1.70;;
33327;SDS011;19692;52.998;9.116;2023-08-01T12:16:45;2.40;;;1.73;;
33327;SDS011;19692;52.998;9.116;2023-08-01T12:19:18;2.57;;;1.70;;
33327;SDS011;19692;52.998;9.116;2023-08-01T12:21:45;2.17;;;1.67;;
33327;SDS011;19692;52.998;9.116;2023-08-01T12:24:12;3.47;;;1.80;;
33327;SDS011;19692;52.998;9.116;2023-08-01T12:26:37;3.03;;;1.80;;
33327;SDS011;19692;52.998;9.116;2023-08-01T12:29:03;4.27;;;1.83;;
33327;SDS011;19692;52.998;9.116;2023-08-01T12:31:30;3.53;;;2.00;;
33327;SDS011;19692;52.998;9.116;2023-08-01T12:33:56;3.90;;;1.83;;
33327;SDS011;19692;52.998;9.116;2023-08-01T12:36:22;4.67;;;1.90;;
33327;SDS011;19692;52.998;9.116;2023-08-01T12:38:47;2.37;;;1.70;;
33327;SDS011;19692;52.998;9.116;2023-08-01T12:41:14;2.37;;;1.83;;
33327;SDS011;19692;52.998;9.116;2023-08-01T12:43:39;1.87;;;1.67;;
33327;SDS011;19692;52.998;9.116;2023-08-01T12:46:06;2.43;;;1.50;;
33327;SDS011;19692;52.998;9.116;2023-08-01T12:48:32;4.40;;;1.83;;
33327;SDS011;19692;52.998;9.116;2023-08-01T12:50:58;3.17;;;2.00;;
33327;SDS011;19692;52.998;9.116;2023-08-01T12:53:24;2.50;;;2.13;;
33327;SDS011;19692;52.998;9.116;2023-08-01T12:55:50;2.13;;;1.50;;
33327;SDS011;19692;52.998;9.116;2023-08-01T12:58:17;1.90;;;1.63;;
33327;SDS011;19692;52.998;9.116;2023-08-01T13:00:43;3.57;;;1.70;;
33327;SDS011;19692;52.998;9.116;2023-08-01T13:03:10;3.37;;;1.67;;
33327;SDS011;19692;52.998;9.116;2023-08-01T13:05:37;3.73;;;1.90;;
33327;SDS011;19692;52.998;9.116;2023-08-01T13:08:05;2.47;;;1.80;;
33327;SDS011;19692;52.998;9.116;2023-08-01T13:10:32;3.70;;;1.70;;
33327;SDS011;19692;52.998;9.116;2023-08-01T13:13:02;3.47;;;2.10;;
33327;SDS011;19692;52.998;9.116;2023-08-01T13:15:28;4.30;;;1.97;;
33327;SDS011;19692;52.998;9.116;2023-08-01T13:17:55;3.50;;;1.83;;
33327;SDS011;19692;52.998;9.116;2023-08-01T13:20:21;2.13;;;1.60;;
33327;SDS011;19692;52.998;9.116;2023-08-01T13:22:48;2.93;;;1.80;;
33327;SDS011;19692;52.998;9.116;2023-08-01T13:25:15;3.80;;;1.73;;
33327;SDS011;19692;52.998;9.116;2023-08-01T13:27:42;1.90;;;1.50;;
33327;SDS011;19692;52.998;9.116;2023-08-01T13:30:08;2.67;;;1.90;;
33327;SDS011;19692;52.998;9.116;2023-08-01T13:32:35;4.20;;;1.60;;
33327;SDS011;19692;52.998;9.116;2023-08-01T13:35:01;7.00;;;3.20;;
33327;SDS011;19692;52.998;9.116;2023-08-01T13:37:27;1.93;;;1.33;;
33327;SDS011;19692;52.998;9.116;2023-08-01T13:39:57;3.40;;;2.17;;
33327;SDS011;19692;52.998;9.116;2023-08-01T13:42:23;2.23;;;1.50;;
33327;SDS011;19692;52.998;9.116;2023-08-01T13:44:49;4.07;;;1.73;;
33327;SDS011;19692;52.998;9.116;2023-08-01T13:47:15;2.90;;;1.93;;
33327;SDS011;19692;52.998;9.116;2023-08-01T13:49:41;4.20;;;1.90;;
33327;SDS011;19692;52.998;9.116;2023-08-01T13:52:06;3.03;;;2.10;;
33327;SDS011;19692;52.998;9.116;2023-08-01T13:54:32;2.87;;;1.67;;
33327;SDS011;19692;52.998;9.116;2023-08-01T13:56:58;2.87;;;1.70;;
33327;SDS011;19692;52.998;9.116;2023-08-01T13:59:25;2.23;;;1.87;;
33327;SDS011;19692;52.998;9.116;2023-08-01T14:01:52;3.10;;;1.73;;
33327;SDS011;19692;52.998;9.116;2023-08-01T14:04:18;1.97;;;1.50;;
33327;SDS011;19692;52.998;9.116;2023-08-01T14:06:43;3.03;;;1.67;;
33327;SDS011;19692;52.998;9.116;2023-08-01T14:09:09;3.80;;;1.77;;
33327;SDS011;19692;52.998;9.116;2023-08-01T14:11:35;2.73;;;1.60;;
33327;SDS011;19692;52.998;9.116;2023-08-01T14:14:02;3.83;;;1.93;;
33327;SDS011;19692;52.998;9.116;2023-08-01T14:16:28;3.10;;;1.70;;
33327;SDS011;19692;52.998;9.116;2023-08-01T14:18:55;2.93;;;1.90;;
33327;SDS011;19692;52.998;9.116;2023-08-01T14:21:22;3.17;;;1.70;;
33327;SDS011;19692;52.998;9.116;2023-08-01T14:23:47;2.43;;;1.60;;
33327;SDS011;19692;52.998;9.116;2023-08-01T14:26:13;3.93;;;2.17;;
33327;SDS011;19692;52.998;9.116;2023-08-01T14:28:39;2.23;;;1.33;;
33327;SDS011;19692;52.998;9.116;2023-08-01T14:31:05;3.30;;;1.77;;
33327;SDS011;19692;52.998;9.116;2023-08-01T14:33:32;2.10;;;1.60;;
33327;SDS011;19692;52.998;9.116;2023-08-01T14:35:59;5.63;;;2.10;;
33327;SDS011;19692;52.998;9.116;2023-08-01T14:38:25;2.57;;;1.60;;
33327;SDS011;19692;52.998;9.116;2023-08-01T14:40:51;4.10;;;2.13;;
33327;SDS011;19692;52.998;9.116;2023-08-01T14:43:18;2.23;;;1.90;;
33327;SDS011;19692;52.998;9.116;2023-08-01T14:45:44;4.70;;;2.10;;
33327;SDS011;19692;52.998;9.116;2023-08-01T14:48:10;2.87;;;1.90;;
33327;SDS011;19692;52.998;9.116;2023-08-01T14:50:37;4.03;;;1.80;;
33327;SDS011;19692;52.998;9.116;2023-08-01T14:53:03;4.33;;;2.73;;